sensor_id;sensor_type;location;lat;lon;timestamp;pressure;altitude;pressure_sealevel;temperature;humidity
78855;BME280;68206;59.956;30.234;2023-04-08T00:01:59;102738.50;;;3.54;50.01
78855;BME280;68206;59.956;30.234;2023-04-08T00:04:27;102735.03;;;3.55;49.46
78855;BME280;68206;59.956;30.234;2023-04-08T00:06:56;102739.38;;;3.55;49.68
78855;BME280;68206;59.956;30.234;2023-04-08T00:09:24;102737.66;;;3.55;49.85
78855;BME280;68206;59.956;30.234;2023-04-08T00:11:52;102734.97;;;3.54;49.37
78855;BME280;68206;59.956;30.234;2023-04-08T00:14:21;102734.13;;;3.55;49.10
78855;BME280;68206;59.956;30.234;2023-04-08T00:16:49;102734.97;;;3.54;49.81
78855;BME280;68206;59.956;30.234;2023-04-08T00:19:17;102734.91;;;3.52;49.37
78855;BME280;68206;59.956;30.234;2023-04-08T00:21:45;102739.25;;;3.52;49.80
78855;BME280;68206;59.956;30.234;2023-04-08T00:24:14;102735.69;;;3.50;49.72
78855;BME280;68206;59.956;30.234;2023-04-08T00:26:42;102727.81;;;3.48;49.63
78855;BME280;68206;59.956;30.234;2023-04-08T00:29:10;102740.88;;;3.47;49.70
78855;BME280;68206;59.956;30.234;2023-04-08T00:31:39;102739.06;;;3.46;49.82
78855;BME280;68206;59.956;30.234;2023-04-08T00:34:08;102737.28;;;3.45;49.53
78855;BME280;68206;59.956;30.234;2023-04-08T00:36:37;102742.50;;;3.43;50.11
78855;BME280;68206;59.956;30.234;2023-04-08T00:39:06;102737.16;;;3.40;49.99
78855;BME280;68206;59.956;30.234;2023-04-08T00:41:34;102738.00;;;3.39;50.03
78855;BME280;68206;59.956;30.234;2023-04-08T00:44:02;102737.06;;;3.37;50.00
78855;BME280;68206;59.956;30.234;2023-04-08T00:46:34;102737.06;;;3.37;50.18
78855;BME280;68206;59.956;30.234;2023-04-08T00:49:04;102732.66;;;3.36;50.20
78855;BME280;68206;59.956;30.234;2023-04-08T00:51:33;102734.44;;;3.37;50.27
78855;BME280;68206;59.956;30.234;2023-04-08T00:54:03;102736.19;;;3.38;50.39
78855;BME280;68206;59.956;30.234;2023-04-08T00:56:31;102738.81;;;3.38;50.21
78855;BME280;68206;59.956;30.234;2023-04-08T00:59:02;102735.31;;;3.38;50.57
78855;BME280;68206;59.956;30.234;2023-04-08T01:01:34;102737.00;;;3.36;50.67
78855;BME280;68206;59.956;30.234;2023-04-08T01:04:08;102728.25;;;3.35;50.36
78855;BME280;68206;59.956;30.234;2023-04-08T01:06:48;102737.91;;;3.36;50.56
78855;BME280;68206;59.956;30.234;2023-04-08T01:09:18;102731.75;;;3.36;50.26
78855;BME280;68206;59.956;30.234;2023-04-08T01:11:49;102736.19;;;3.38;50.17
78855;BME280;68206;59.956;30.234;2023-04-08T01:14:20;102731.84;;;3.39;49.90
78855;BME280;68206;59.956;30.234;2023-04-08T01:16:50;102731.84;;;3.39;50.35
78855;BME280;68206;59.956;30.234;2023-04-08T01:19:26;102727.50;;;3.39;49.98
78855;BME280;68206;59.956;30.234;2023-04-08T01:22:01;102734.53;;;3.40;49.93
78855;BME280;68206;59.956;30.234;2023-04-08T01:24:32;102731.91;;;3.40;49.81
78855;BME280;68206;59.956;30.234;2023-04-08T01:27:05;102730.19;;;3.41;49.77
78855;BME280;68206;59.956;30.234;2023-04-08T01:29:35;102729.28;;;3.40;50.07
78855;BME280;68206;59.956;30.234;2023-04-08T01:32:06;102728.34;;;3.38;50.67
78855;BME280;68206;59.956;30.234;2023-04-08T01:34:35;102728.38;;;3.40;50.74
78855;BME280;68206;59.956;30.234;2023-04-08T01:37:05;102723.09;;;3.38;49.98
78855;BME280;68206;59.956;30.234;2023-04-08T01:39:34;102727.44;;;3.38;50.32
78855;BME280;68206;59.956;30.234;2023-04-08T01:42:04;102724.78;;;3.36;50.17
78855;BME280;68206;59.956;30.234;2023-04-08T01:44:34;102722.06;;;3.33;50.38
78855;BME280;68206;59.956;30.234;2023-04-08T01:47:03;102722.06;;;3.33;50.79
78855;BME280;68206;59.956;30.234;2023-04-08T01:49:32;102721.16;;;3.33;50.77
78855;BME280;68206;59.956;30.234;2023-04-08T01:52:00;102722.06;;;3.33;50.92
78855;BME280;68206;59.956;30.234;2023-04-08T01:54:29;102716.75;;;3.32;50.78
78855;BME280;68206;59.956;30.234;2023-04-08T01:56:57;102718.47;;;3.31;50.86
78855;BME280;68206;59.956;30.234;2023-04-08T01:59:30;102713.25;;;3.31;50.63
78855;BME280;68206;59.956;30.234;2023-04-08T02:02:04;102713.16;;;3.28;50.97
78855;BME280;68206;59.956;30.234;2023-04-08T02:04:33;102715.84;;;3.30;50.76
78855;BME280;68206;59.956;30.234;2023-04-08T02:07:03;102714.06;;;3.29;51.18
78855;BME280;68206;59.956;30.234;2023-04-08T02:09:31;102715.72;;;3.27;50.82
78855;BME280;68206;59.956;30.234;2023-04-08T02:12:00;102714.84;;;3.26;51.09
78855;BME280;68206;59.956;30.234;2023-04-08T02:14:29;102713.94;;;3.25;51.10
78855;BME280;68206;59.956;30.234;2023-04-08T02:17:09;102706.03;;;3.24;50.62
78855;BME280;68206;59.956;30.234;2023-04-08T02:19:43;102710.41;;;3.23;50.86
78855;BME280;68206;59.956;30.234;2023-04-08T02:22:18;102711.28;;;3.24;51.35
78855;BME280;68206;59.956;30.234;2023-04-08T02:24:50;102706.03;;;3.24;51.33
78855;BME280;68206;59.956;30.234;2023-04-08T02:27:19;102703.38;;;3.22;51.39
78855;BME280;68206;59.956;30.234;2023-04-08T02:29:49;102705.94;;;3.21;51.01
78855;BME280;68206;59.956;30.234;2023-04-08T02:32:22;102705.03;;;3.20;51.60
78855;BME280;68206;59.956;30.234;2023-04-08T02:34:52;102709.44;;;3.21;51.33
78855;BME280;68206;59.956;30.234;2023-04-08T02:37:22;102709.44;;;3.21;51.42
78855;BME280;68206;59.956;30.234;2023-04-08T02:39:50;102707.59;;;3.19;51.12
78855;BME280;68206;59.956;30.234;2023-04-08T02:42:18;102710.22;;;3.19;51.60
78855;BME280;68206;59.956;30.234;2023-04-08T02:44:46;102701.44;;;3.17;51.28
78855;BME280;68206;59.956;30.234;2023-04-08T02:47:16;102702.22;;;3.14;51.10
78855;BME280;68206;59.956;30.234;2023-04-08T02:49:44;102701.28;;;3.12;51.22
78855;BME280;68206;59.956;30.234;2023-04-08T02:52:12;102702.91;;;3.09;51.11
78855;BME280;68206;59.956;30.234;2023-04-08T02:54:40;102704.66;;;3.08;51.18
78855;BME280;68206;59.956;30.234;2023-04-08T02:57:08;102702.03;;;3.08;51.29
78855;BME280;68206;59.956;30.234;2023-04-08T02:59:36;102699.41;;;3.08;51.41
78855;BME280;68206;59.956;30.234;2023-04-08T03:02:04;102693.25;;;3.08;51.60
78855;BME280;68206;59.956;30.234;2023-04-08T03:04:34;102700.28;;;3.09;51.72
78855;BME280;68206;59.956;30.234;2023-04-08T03:07:02;102696.72;;;3.07;51.29
78855;BME280;68206;59.956;30.234;2023-04-08T03:09:32;102698.50;;;3.08;51.16
78855;BME280;68206;59.956;30.234;2023-04-08T03:12:00;102699.47;;;3.10;51.21
78855;BME280;68206;59.956;30.234;2023-04-08T03:14:28;102698.63;;;3.11;51.70
78855;BME280;68206;59.956;30.234;2023-04-08T03:16:56;102693.38;;;3.11;51.22
78855;BME280;68206;59.956;30.234;2023-04-08T03:19:24;102692.56;;;3.13;50.96
78855;BME280;68206;59.956;30.234;2023-04-08T03:21:54;102695.25;;;3.15;51.16
78855;BME280;68206;59.956;30.234;2023-04-08T03:24:22;102696.13;;;3.15;51.07
78855;BME280;68206;59.956;30.234;2023-04-08T03:26:50;102701.44;;;3.17;51.00
78855;BME280;68206;59.956;30.234;2023-04-08T03:29:18;102700.28;;;3.36;51.00
78855;BME280;68206;59.956;30.234;2023-04-08T03:31:46;102704.22;;;3.50;50.99
78855;BME280;68206;59.956;30.234;2023-04-08T03:34:14;102702.09;;;3.95;49.77
78855;BME280;68206;59.956;30.234;2023-04-08T03:36:42;102694.88;;;4.49;49.58
78855;BME280;68206;59.956;30.234;2023-04-08T03:39:12;102698.13;;;5.08;48.35
78855;BME280;68206;59.956;30.234;2023-04-08T03:41:40;102699.47;;;5.64;46.90
78855;BME280;68206;59.956;30.234;2023-04-08T03:44:08;102701.66;;;6.24;45.51
78855;BME280;68206;59.956;30.234;2023-04-08T03:46:36;102699.97;;;6.74;44.93
78855;BME280;68206;59.956;30.234;2023-04-08T03:49:04;102689.44;;;7.28;42.88
78855;BME280;68206;59.956;30.234;2023-04-08T03:51:33;102692.91;;;7.86;41.87
78855;BME280;68206;59.956;30.234;2023-04-08T03:54:01;102695.41;;;8.44;40.91
78855;BME280;68206;59.956;30.234;2023-04-08T03:56:30;102688.06;;;9.05;39.31
78855;BME280;68206;59.956;30.234;2023-04-08T03:58:58;102691.88;;;9.47;37.76
78855;BME280;68206;59.956;30.234;2023-04-08T04:01:26;102698.22;;;9.75;38.27
78855;BME280;68206;59.956;30.234;2023-04-08T04:03:54;102691.28;;;9.96;37.33
78855;BME280;68206;59.956;30.234;2023-04-08T04:06:23;102695.81;;;10.25;37.25
78855;BME280;68206;59.956;30.234;2023-04-08T04:08:52;102690.59;;;10.57;36.03
78855;BME280;68206;59.956;30.234;2023-04-08T04:11:20;102692.44;;;10.86;35.53
78855;BME280;68206;59.956;30.234;2023-04-08T04:13:50;102702.19;;;11.16;34.96
78855;BME280;68206;59.956;30.234;2023-04-08T04:16:18;102702.13;;;11.50;33.65
78855;BME280;68206;59.956;30.234;2023-04-08T04:18:46;102690.56;;;11.84;32.16
78855;BME280;68206;59.956;30.234;2023-04-08T04:21:14;102691.25;;;12.27;31.75
78855;BME280;68206;59.956;30.234;2023-04-08T04:23:43;102687.72;;;12.25;31.17
78855;BME280;68206;59.956;30.234;2023-04-08T04:26:11;102697.34;;;12.50;31.51
78855;BME280;68206;59.956;30.234;2023-04-08T04:28:39;102689.22;;;12.72;30.60
78855;BME280;68206;59.956;30.234;2023-04-08T04:31:17;102691.13;;;12.55;30.67
78855;BME280;68206;59.956;30.234;2023-04-08T04:33:45;102691.09;;;12.59;31.12
78855;BME280;68206;59.956;30.234;2023-04-08T04:36:13;102693.66;;;12.70;31.28
78855;BME280;68206;59.956;30.234;2023-04-08T04:38:42;102697.13;;;12.82;30.15
78855;BME280;68206;59.956;30.234;2023-04-08T04:41:10;102698.13;;;12.68;29.53
78855;BME280;68206;59.956;30.234;2023-04-08T04:43:38;102690.00;;;12.86;30.03
78855;BME280;68206;59.956;30.234;2023-04-08T04:46:07;102689.91;;;12.98;29.62
78855;BME280;68206;59.956;30.234;2023-04-08T04:48:36;102688.84;;;13.23;29.68
78855;BME280;68206;59.956;30.234;2023-04-08T04:51:04;102692.34;;;13.28;28.19
78855;BME280;68206;59.956;30.234;2023-04-08T04:53:33;102689.31;;;13.63;28.29
78855;BME280;68206;59.956;30.234;2023-04-08T04:56:01;102681.84;;;13.94;27.68
78855;BME280;68206;59.956;30.234;2023-04-08T04:58:30;102687.72;;;14.21;27.15
78855;BME280;68206;59.956;30.234;2023-04-08T05:00:58;102682.94;;;14.48;26.52
78855;BME280;68206;59.956;30.234;2023-04-08T05:03:27;102682.28;;;14.91;25.85
78855;BME280;68206;59.956;30.234;2023-04-08T05:05:55;102679.53;;;15.45;25.31
78855;BME280;68206;59.956;30.234;2023-04-08T05:08:23;102681.22;;;15.98;25.33
78855;BME280;68206;59.956;30.234;2023-04-08T05:10:54;102678.59;;;16.75;24.01
78855;BME280;68206;59.956;30.234;2023-04-08T05:13:22;102677.78;;;17.42;23.34
78855;BME280;68206;59.956;30.234;2023-04-08T05:15:50;102676.81;;;17.79;22.22
78855;BME280;68206;59.956;30.234;2023-04-08T05:18:18;102677.72;;;18.08;21.90
78855;BME280;68206;59.956;30.234;2023-04-08T05:20:49;102679.78;;;18.59;21.58
78855;BME280;68206;59.956;30.234;2023-04-08T05:23:18;102689.69;;;18.85;21.03
78855;BME280;68206;59.956;30.234;2023-04-08T05:25:46;102680.00;;;19.06;20.50
78855;BME280;68206;59.956;30.234;2023-04-08T05:28:15;102674.63;;;19.58;19.88
78855;BME280;68206;59.956;30.234;2023-04-08T05:30:47;102679.25;;;20.03;19.50
78855;BME280;68206;59.956;30.234;2023-04-08T05:33:16;102678.34;;;20.02;19.06
78855;BME280;68206;59.956;30.234;2023-04-08T05:35:45;102667.31;;;20.10;18.96
78855;BME280;68206;59.956;30.234;2023-04-08T05:38:14;102665.88;;;20.23;19.25
78855;BME280;68206;59.956;30.234;2023-04-08T05:40:43;102664.19;;;20.21;18.83
78855;BME280;68206;59.956;30.234;2023-04-08T05:43:11;102664.44;;;20.38;18.84
78855;BME280;68206;59.956;30.234;2023-04-08T05:45:39;102667.50;;;20.50;18.80
78855;BME280;68206;59.956;30.234;2023-04-08T05:48:07;102667.50;;;20.94;18.13
78855;BME280;68206;59.956;30.234;2023-04-08T05:50:35;102669.69;;;21.06;17.86
78855;BME280;68206;59.956;30.234;2023-04-08T05:53:03;102665.84;;;21.54;17.46
78855;BME280;68206;59.956;30.234;2023-04-08T05:55:33;102673.75;;;21.58;17.57
78855;BME280;68206;59.956;30.234;2023-04-08T05:58:02;102672.31;;;21.50;17.21
78855;BME280;68206;59.956;30.234;2023-04-08T06:00:30;102670.09;;;21.59;17.25
78855;BME280;68206;59.956;30.234;2023-04-08T06:02:58;102674.13;;;21.69;17.18
78855;BME280;68206;59.956;30.234;2023-04-08T06:05:27;102666.41;;;21.81;17.12
78855;BME280;68206;59.956;30.234;2023-04-08T06:07:55;102666.13;;;22.26;16.94
78855;BME280;68206;59.956;30.234;2023-04-08T06:10:23;102671.44;;;22.65;16.27
78855;BME280;68206;59.956;30.234;2023-04-08T06:12:53;102669.75;;;22.81;16.08
78855;BME280;68206;59.956;30.234;2023-04-08T06:15:21;102665.59;;;23.27;16.11
78855;BME280;68206;59.956;30.234;2023-04-08T06:17:49;102663.84;;;23.26;15.75
78855;BME280;68206;59.956;30.234;2023-04-08T06:20:17;102669.19;;;23.27;15.56
78855;BME280;68206;59.956;30.234;2023-04-08T06:22:45;102672.47;;;23.17;15.35
78855;BME280;68206;59.956;30.234;2023-04-08T06:25:13;102666.94;;;23.70;14.95
78855;BME280;68206;59.956;30.234;2023-04-08T06:27:41;102668.50;;;24.56;14.91
78855;BME280;68206;59.956;30.234;2023-04-08T06:30:11;102663.75;;;25.66;13.79
78855;BME280;68206;59.956;30.234;2023-04-08T06:32:40;102656.84;;;26.72;13.15
78855;BME280;68206;59.956;30.234;2023-04-08T06:35:08;102665.00;;;27.26;12.28
78855;BME280;68206;59.956;30.234;2023-04-08T06:37:37;102656.19;;;28.24;11.90
78855;BME280;68206;59.956;30.234;2023-04-08T06:40:06;102666.75;;;29.01;11.32
78855;BME280;68206;59.956;30.234;2023-04-08T06:42:34;102657.84;;;28.26;11.52
78855;BME280;68206;59.956;30.234;2023-04-08T06:45:18;102653.59;;;27.46;11.92
78855;BME280;68206;59.956;30.234;2023-04-08T06:47:47;102659.91;;;27.34;12.05
78855;BME280;68206;59.956;30.234;2023-04-08T06:50:16;102655.00;;;28.64;11.91
78855;BME280;68206;59.956;30.234;2023-04-08T06:52:44;102651.09;;;28.56;11.19
78855;BME280;68206;59.956;30.234;2023-04-08T06:55:12;102659.28;;;28.92;10.75
78855;BME280;68206;59.956;30.234;2023-04-08T06:57:40;102656.47;;;28.44;11.38
78855;BME280;68206;59.956;30.234;2023-04-08T07:00:10;102652.03;;;29.61;10.48
78855;BME280;68206;59.956;30.234;2023-04-08T07:02:39;102660.31;;;29.94;10.32
78855;BME280;68206;59.956;30.234;2023-04-08T07:05:08;102657.44;;;30.18;10.09
78855;BME280;68206;59.956;30.234;2023-04-08T07:07:37;102653.16;;;29.23;10.89
78855;BME280;68206;59.956;30.234;2023-04-08T07:10:05;102655.09;;;28.63;10.72
78855;BME280;68206;59.956;30.234;2023-04-08T07:12:38;102660.75;;;28.72;11.03
78855;BME280;68206;59.956;30.234;2023-04-08T07:15:07;102650.28;;;28.66;11.31
78855;BME280;68206;59.956;30.234;2023-04-08T07:17:35;102652.41;;;28.50;10.93
78855;BME280;68206;59.956;30.234;2023-04-08T07:20:07;102657.28;;;28.34;11.04
78855;BME280;68206;59.956;30.234;2023-04-08T07:22:35;102653.66;;;27.32;12.13
78855;BME280;68206;59.956;30.234;2023-04-08T07:25:04;102655.69;;;26.62;12.38
78855;BME280;68206;59.956;30.234;2023-04-08T07:27:33;102649.16;;;27.18;11.98
78855;BME280;68206;59.956;30.234;2023-04-08T07:30:01;102653.19;;;27.52;11.90
78855;BME280;68206;59.956;30.234;2023-04-08T07:32:29;102649.88;;;27.47;11.72
78855;BME280;68206;59.956;30.234;2023-04-08T07:34:58;102646.09;;;27.62;11.56
78855;BME280;68206;59.956;30.234;2023-04-08T07:37:28;102641.94;;;27.95;11.03
78855;BME280;68206;59.956;30.234;2023-04-08T07:39:56;102648.34;;;28.19;11.80
78855;BME280;68206;59.956;30.234;2023-04-08T07:42:24;102645.00;;;28.16;11.12
78855;BME280;68206;59.956;30.234;2023-04-08T07:44:53;102642.63;;;28.47;11.47
78855;BME280;68206;59.956;30.234;2023-04-08T07:47:21;102650.13;;;27.69;11.23
78855;BME280;68206;59.956;30.234;2023-04-08T07:49:49;102656.25;;;26.55;12.42
78855;BME280;68206;59.956;30.234;2023-04-08T07:52:18;102650.81;;;27.21;12.10
78855;BME280;68206;59.956;30.234;2023-04-08T07:54:47;102650.72;;;28.11;11.37
78855;BME280;68206;59.956;30.234;2023-04-08T07:57:16;102641.97;;;28.44;11.19
78855;BME280;68206;59.956;30.234;2023-04-08T07:59:44;102642.31;;;28.39;10.87
78855;BME280;68206;59.956;30.234;2023-04-08T08:02:12;102647.50;;;29.84;10.57
78855;BME280;68206;59.956;30.234;2023-04-08T08:04:40;102636.44;;;29.85;10.72
78855;BME280;68206;59.956;30.234;2023-04-08T08:07:09;102645.78;;;27.80;11.35
78855;BME280;68206;59.956;30.234;2023-04-08T08:09:37;102636.63;;;29.14;10.63
78855;BME280;68206;59.956;30.234;2023-04-08T08:12:06;102645.44;;;31.07;9.69
78855;BME280;68206;59.956;30.234;2023-04-08T08:14:34;102646.06;;;31.10;9.43
78855;BME280;68206;59.956;30.234;2023-04-08T08:17:03;102638.44;;;30.17;9.55
78855;BME280;68206;59.956;30.234;2023-04-08T08:19:31;102643.50;;;27.09;11.49
78855;BME280;68206;59.956;30.234;2023-04-08T08:21:59;102649.31;;;25.36;13.00
78855;BME280;68206;59.956;30.234;2023-04-08T08:24:27;102645.88;;;24.08;14.04
78855;BME280;68206;59.956;30.234;2023-04-08T08:26:55;102651.88;;;22.96;14.61
78855;BME280;68206;59.956;30.234;2023-04-08T08:29:24;102652.97;;;21.99;15.50
78855;BME280;68206;59.956;30.234;2023-04-08T08:31:53;102648.31;;;21.23;15.82
78855;BME280;68206;59.956;30.234;2023-04-08T08:34:21;102640.44;;;20.53;16.72
78855;BME280;68206;59.956;30.234;2023-04-08T08:36:49;102636.38;;;19.97;17.06
78855;BME280;68206;59.956;30.234;2023-04-08T08:39:17;102645.16;;;19.29;17.73
78855;BME280;68206;59.956;30.234;2023-04-08T08:41:45;102645.44;;;18.39;19.39
78855;BME280;68206;59.956;30.234;2023-04-08T08:44:13;102640.47;;;17.67;20.68
78855;BME280;68206;59.956;30.234;2023-04-08T08:46:46;102652.50;;;17.51;20.77
78855;BME280;68206;59.956;30.234;2023-04-08T08:49:15;102651.53;;;17.21;20.34
78855;BME280;68206;59.956;30.234;2023-04-08T08:51:44;102647.00;;;16.89;20.87
78855;BME280;68206;59.956;30.234;2023-04-08T08:54:13;102636.91;;;16.63;21.66
78855;BME280;68206;59.956;30.234;2023-04-08T08:56:42;102636.72;;;16.32;21.55
78855;BME280;68206;59.956;30.234;2023-04-08T08:59:10;102635.44;;;16.10;21.83
78855;BME280;68206;59.956;30.234;2023-04-08T09:01:39;102630.41;;;15.95;22.27
78855;BME280;68206;59.956;30.234;2023-04-08T09:04:13;102633.44;;;15.80;22.01
78855;BME280;68206;59.956;30.234;2023-04-08T09:06:43;102629.41;;;15.57;22.59
78855;BME280;68206;59.956;30.234;2023-04-08T09:09:12;102628.75;;;15.43;22.87
78855;BME280;68206;59.956;30.234;2023-04-08T09:11:42;102630.66;;;15.38;22.62
78855;BME280;68206;59.956;30.234;2023-04-08T09:14:19;102627.47;;;15.18;23.28
78855;BME280;68206;59.956;30.234;2023-04-08T09:16:48;102626.88;;;15.01;23.30
78855;BME280;68206;59.956;30.234;2023-04-08T09:19:18;102627.09;;;14.88;23.32
78855;BME280;68206;59.956;30.234;2023-04-08T09:22:03;102627.19;;;14.84;23.89
78855;BME280;68206;59.956;30.234;2023-04-08T09:24:32;102634.44;;;14.76;24.13
78855;BME280;68206;59.956;30.234;2023-04-08T09:27:00;102621.47;;;14.53;24.11
78855;BME280;68206;59.956;30.234;2023-04-08T09:29:29;102618.16;;;14.34;25.05
78855;BME280;68206;59.956;30.234;2023-04-08T09:32:02;102617.34;;;14.29;24.87
78855;BME280;68206;59.956;30.234;2023-04-08T09:34:32;102619.94;;;14.32;24.49
78855;BME280;68206;59.956;30.234;2023-04-08T09:37:00;102611.97;;;14.31;25.01
78855;BME280;68206;59.956;30.234;2023-04-08T09:39:28;102617.44;;;14.23;25.27
78855;BME280;68206;59.956;30.234;2023-04-08T09:41:59;102613.06;;;14.18;25.03
78855;BME280;68206;59.956;30.234;2023-04-08T09:44:34;102605.81;;;14.24;24.70
78855;BME280;68206;59.956;30.234;2023-04-08T09:47:09;102607.56;;;14.30;25.46
78855;BME280;68206;59.956;30.234;2023-04-08T09:49:50;102602.22;;;14.30;25.24
78855;BME280;68206;59.956;30.234;2023-04-08T09:52:23;102610.41;;;14.16;25.28
78855;BME280;68206;59.956;30.234;2023-04-08T09:55:01;102605.00;;;14.21;24.91
78855;BME280;68206;59.956;30.234;2023-04-08T09:57:30;102603.13;;;14.29;25.08
78855;BME280;68206;59.956;30.234;2023-04-08T10:00:04;102608.63;;;14.17;25.74
78855;BME280;68206;59.956;30.234;2023-04-08T10:02:46;102595.31;;;14.15;25.76
78855;BME280;68206;59.956;30.234;2023-04-08T10:05:18;102598.94;;;14.11;25.33
78855;BME280;68206;59.956;30.234;2023-04-08T10:07:49;102591.03;;;14.02;25.43
78855;BME280;68206;59.956;30.234;2023-04-08T10:10:18;102591.13;;;13.94;25.39
78855;BME280;68206;59.956;30.234;2023-04-08T10:12:47;102596.44;;;13.97;25.30
78855;BME280;68206;59.956;30.234;2023-04-08T10:15:25;102595.47;;;14.04;24.55
78855;BME280;68206;59.956;30.234;2023-04-08T10:17:55;102598.03;;;14.10;24.66
78855;BME280;68206;59.956;30.234;2023-04-08T10:20:46;102597.09;;;14.14;24.42
78855;BME280;68206;59.956;30.234;2023-04-08T10:23:16;102592.75;;;14.07;24.80
78855;BME280;68206;59.956;30.234;2023-04-08T10:25:47;102592.75;;;14.06;25.02
78855;BME280;68206;59.956;30.234;2023-04-08T10:28:25;102589.34;;;13.96;25.65
78855;BME280;68206;59.956;30.234;2023-04-08T10:30:54;102587.56;;;13.95;25.38
78855;BME280;68206;59.956;30.234;2023-04-08T10:33:30;102584.91;;;13.94;25.51
78855;BME280;68206;59.956;30.234;2023-04-08T10:36:08;102588.44;;;13.97;26.13
78855;BME280;68206;59.956;30.234;2023-04-08T10:38:38;102590.22;;;13.97;26.51
78855;BME280;68206;59.956;30.234;2023-04-08T10:41:09;102580.47;;;13.96;27.03
78855;BME280;68206;59.956;30.234;2023-04-08T10:43:37;102583.13;;;13.94;26.68
78855;BME280;68206;59.956;30.234;2023-04-08T10:46:09;102578.69;;;13.93;26.42
78855;BME280;68206;59.956;30.234;2023-04-08T10:48:37;102581.34;;;13.98;26.59
78855;BME280;68206;59.956;30.234;2023-04-08T10:51:06;102579.53;;;13.98;26.70
78855;BME280;68206;59.956;30.234;2023-04-08T10:53:35;102580.38;;;14.00;26.36
78855;BME280;68206;59.956;30.234;2023-04-08T10:56:05;102579.56;;;13.95;26.50
78855;BME280;68206;59.956;30.234;2023-04-08T10:58:34;102576.91;;;13.95;26.18
78855;BME280;68206;59.956;30.234;2023-04-08T11:01:04;102563.72;;;13.86;26.29
78855;BME280;68206;59.956;30.234;2023-04-08T11:03:34;102568.09;;;13.90;26.06
78855;BME280;68206;59.956;30.234;2023-04-08T11:06:15;102569.00;;;13.89;26.63
78855;BME280;68206;59.956;30.234;2023-04-08T11:08:45;102568.06;;;13.92;26.62
78855;BME280;68206;59.956;30.234;2023-04-08T11:11:13;102563.72;;;13.85;26.81
78855;BME280;68206;59.956;30.234;2023-04-08T11:13:44;102563.72;;;13.86;26.42
78855;BME280;68206;59.956;30.234;2023-04-08T11:16:20;102567.22;;;13.87;26.66
78855;BME280;68206;59.956;30.234;2023-04-08T11:18:50;102568.13;;;13.87;26.58
78855;BME280;68206;59.956;30.234;2023-04-08T11:21:22;102562.78;;;13.87;26.69
78855;BME280;68206;59.956;30.234;2023-04-08T11:23:51;102566.28;;;13.92;26.61
78855;BME280;68206;59.956;30.234;2023-04-08T11:26:20;102563.66;;;13.88;26.72
78855;BME280;68206;59.956;30.234;2023-04-08T11:28:49;102563.81;;;13.80;26.75
78855;BME280;68206;59.956;30.234;2023-04-08T11:31:18;102565.53;;;13.81;26.77
78855;BME280;68206;59.956;30.234;2023-04-08T11:33:53;102560.19;;;13.81;26.57
78855;BME280;68206;59.956;30.234;2023-04-08T11:36:24;102565.59;;;13.80;26.53
78855;BME280;68206;59.956;30.234;2023-04-08T11:38:53;102561.22;;;13.74;26.89
78855;BME280;68206;59.956;30.234;2023-04-08T11:41:22;102566.59;;;13.68;26.93
78855;BME280;68206;59.956;30.234;2023-04-08T11:43:54;102558.56;;;13.72;27.85
78855;BME280;68206;59.956;30.234;2023-04-08T11:46:22;102552.28;;;13.75;28.54
78855;BME280;68206;59.956;30.234;2023-04-08T11:48:58;102558.53;;;13.74;26.94
78855;BME280;68206;59.956;30.234;2023-04-08T11:51:28;102554.19;;;13.67;26.41
78855;BME280;68206;59.956;30.234;2023-04-08T11:53:57;102547.13;;;13.63;27.08
78855;BME280;68206;59.956;30.234;2023-04-08T11:56:26;102542.66;;;13.63;26.78
78855;BME280;68206;59.956;30.234;2023-04-08T11:58:56;102540.00;;;13.65;28.40
78855;BME280;68206;59.956;30.234;2023-04-08T12:01:25;102539.91;;;13.72;26.93
78855;BME280;68206;59.956;30.234;2023-04-08T12:03:55;102543.53;;;13.67;26.57
78855;BME280;68206;59.956;30.234;2023-04-08T12:06:25;102538.22;;;13.64;26.80
78855;BME280;68206;59.956;30.234;2023-04-08T12:08:57;102540.88;;;13.65;27.51
78855;BME280;68206;59.956;30.234;2023-04-08T12:11:26;102537.25;;;13.69;27.57
78855;BME280;68206;59.956;30.234;2023-04-08T12:13:55;102531.09;;;13.66;26.95
78855;BME280;68206;59.956;30.234;2023-04-08T12:16:23;102530.28;;;13.59;26.92
78855;BME280;68206;59.956;30.234;2023-04-08T12:18:52;102530.31;;;13.58;27.57
78855;BME280;68206;59.956;30.234;2023-04-08T12:21:21;102529.44;;;13.56;27.57
78855;BME280;68206;59.956;30.234;2023-04-08T12:23:49;102531.28;;;13.52;26.83
78855;BME280;68206;59.956;30.234;2023-04-08T12:26:20;102526.75;;;13.57;28.23
78855;BME280;68206;59.956;30.234;2023-04-08T12:28:48;102524.97;;;13.59;27.94
78855;BME280;68206;59.956;30.234;2023-04-08T12:31:17;102522.31;;;13.58;27.11
78855;BME280;68206;59.956;30.234;2023-04-08T12:33:45;102517.03;;;13.55;27.41
78855;BME280;68206;59.956;30.234;2023-04-08T12:36:14;102520.59;;;13.54;27.97
78855;BME280;68206;59.956;30.234;2023-04-08T12:38:43;102511.72;;;13.52;27.11
78855;BME280;68206;59.956;30.234;2023-04-08T12:41:11;102513.50;;;13.53;27.47
78855;BME280;68206;59.956;30.234;2023-04-08T12:43:41;102515.34;;;13.48;26.86
78855;BME280;68206;59.956;30.234;2023-04-08T12:46:09;102518.91;;;13.47;28.67
78855;BME280;68206;59.956;30.234;2023-04-08T12:48:38;102513.59;;;13.44;28.27
78855;BME280;68206;59.956;30.234;2023-04-08T12:51:06;102510.13;;;13.39;28.52
78855;BME280;68206;59.956;30.234;2023-04-08T12:53:36;102513.78;;;13.30;28.13
78855;BME280;68206;59.956;30.234;2023-04-08T12:56:05;102507.53;;;13.31;28.15